Hokes Bluff, Alabama
Current Conditions -  °F | °C
As of 1:35 PM on Thursday 18 Dec 2014 (Local Time) from KGAD Reporting Station
Overcast Overcast  
Wind Chill: 46°   Ceiling: 5000
Heat Index: 46°   Visibility: 10mi
Dew Point: 30°   Wind: 3mph
Humidity: 53%   Direction: 260°W
Pressure: 30.16"   Gusts: NA
Location:  34.0158°N, 85.8342°W
Report Text: KGAD 181935Z 26003KT 10SM OVC050 08/M01 A3016 RMK AO1
Loading
Personal Weather Stations






























Interactive Weather Map New forecast layout! Learn more

10-Day Weather Forecast

Advertisements
Track Severe Weather on mobile